KLSE/LSE METAR and TAF weather

Enter ICAO airport designator
Station Type Date Time Source
KLSE METAR 2024/05/28 22:53 UTC NOAA

KLSE 282253Z 03011G22KT 5SM RA BKN038 OVC050 14/08 A3008 RMK AO2 RAB47 SLP186 P0000 T01440083


Station Type Date Time Source
KLSE Decoded METAR 2024/05/28 22:53 UTC NOAA

LA CROSSE MUNICIPAL AIRPORT , WI, United States (KLSE) 43-53N 091-15W 200M
May 28, 2024 - 06:53 PM EDT / 2024.05.28 2253 UTC
Wind: from the NNE (030 degrees) at 13 MPH (11 KT) gusting to 25 MPH (22 KT):0
Visibility: 5 mile(s):0
Sky conditions: overcast
Weather: rain
Precipitation last hour: A trace
Temperature: 57.9 F (14.4 C)
Dew Point: 46.9 F (8.3 C)
Relative Humidity: 66%
Pressure (altimeter): 30.08 in. Hg (1018 hPa)
ob: KLSE 282253Z 03011G22KT 5SM RA BKN038 OVC050 14/08 A3008 RMK AO2 RAB47 SLP186 P0000 T01440083
cycle: 23

Station Type Date Time Source
KLSE TAF 2024/05/28 23:09 UTC NOAA